Time;durP1;ratioP1;P1;durP2;ratioP2;P2;SDS_P1;SDS_P2;PMS_P1;PMS_P2;Temp;Humidity;BMP_temperature;BMP_pressure;BME280_temperature;BME280_humidity;BME280_pressure;Samples;Min_cycle;Max_cycle;Signal;HPM_P1;HPM_P2
2022/07/20 00:01:47;;;;;;;11.95;4.90;;;;;;;;;;5036624;28;20041;-68
2022/07/20 00:04:13;;;;;;;10.57;4.65;;;;;;;;;;5027071;28;20053;-68
2022/07/20 00:06:39;;;;;;;13.48;5.30;;;;;;;;;;5027996;28;20497;-68
2022/07/20 00:11:49;;;;;;;12.93;4.75;;;;;;;;;;5037737;28;20072;-68
2022/07/20 00:14:15;;;;;;;14.18;4.53;;;;;;;;;;5023023;28;20049;-68
2022/07/20 00:16:41;;;;;;;12.15;4.90;;;;;;;;;;5030885;28;20045;-69
2022/07/20 00:19:08;;;;;;;15.90;4.78;;;;;;;;;;5012289;28;20126;-68
2022/07/20 00:21:34;;;;;;;14.43;5.07;;;;;;;;;;5030834;28;20075;-68
2022/07/20 00:24:00;;;;;;;13.70;4.70;;;;;;;;;;5030672;28;20717;-69
2022/07/20 00:26:26;;;;;;;11.80;4.53;;;;;;;;;;5030998;28;20402;-68
2022/07/20 00:28:52;;;;;;;12.95;4.75;;;;;;;;;;4996173;28;20430;-68
2022/07/20 00:31:18;;;;;;;13.05;4.80;;;;;;;;;;5030319;28;20400;-68
2022/07/20 00:33:48;;;;;;;16.05;4.47;;;;;;;;;;5022551;28;20068;-69
2022/07/20 00:36:18;;;;;;;10.57;4.60;;;;;;;;;;5025834;28;20060;-69
2022/07/20 00:38:44;;;;;;;10.98;4.50;;;;;;;;;;5036345;28;20037;-70
2022/07/20 00:41:11;;;;;;;14.95;4.82;;;;;;;;;;5044960;28;20037;-69
2022/07/20 00:43:57;;;;;;;14.00;5.00;;;;;;;;;;5035935;28;20121;-68
2022/07/20 00:46:24;;;;;;;12.85;5.03;;;;;;;;;;5030724;28;20119;-68
2022/07/20 00:48:50;;;;;;;17.92;4.50;;;;;;;;;;5029441;28;20200;-69
2022/07/20 00:51:16;;;;;;;13.43;4.63;;;;;;;;;;5030849;28;20216;-68
2022/07/20 00:53:42;;;;;;;12.10;4.78;;;;;;;;;;5011219;28;20033;-69
2022/07/20 00:56:08;;;;;;;15.10;4.70;;;;;;;;;;5029023;28;20511;-68
2022/07/20 00:58:35;;;;;;;11.57;4.45;;;;;;;;;;5029685;28;20477;-69
2022/07/20 01:01:02;;;;;;;11.43;4.50;;;;;;;;;;5028500;28;20060;-68
2022/07/20 01:03:28;;;;;;;11.35;4.63;;;;;;;;;;5014982;28;20457;-68
2022/07/20 01:05:54;;;;;;;13.68;4.65;;;;;;;;;;5034355;28;20197;-68
2022/07/20 01:08:20;;;;;;;10.25;4.45;;;;;;;;;;5036278;28;20034;-68
2022/07/20 01:10:47;;;;;;;12.10;4.75;;;;;;;;;;5012222;28;20462;-68
2022/07/20 01:13:13;;;;;;;13.25;4.65;;;;;;;;;;5010561;28;20376;-70
2022/07/20 01:15:39;;;;;;;10.50;4.50;;;;;;;;;;5037897;28;20037;-69
2022/07/20 01:18:05;;;;;;;14.57;4.70;;;;;;;;;;5045041;28;20052;-68
2022/07/20 01:20:33;;;;;;;14.65;4.85;;;;;;;;;;5029935;28;20504;-69
2022/07/20 01:22:59;;;;;;;12.70;4.68;;;;;;;;;;5011247;28;20096;-70
2022/07/20 01:25:25;;;;;;;14.45;4.45;;;;;;;;;;5034206;28;20120;-69
2022/07/20 01:27:51;;;;;;;13.32;4.65;;;;;;;;;;5010601;28;20397;-68
2022/07/20 01:30:17;;;;;;;11.35;4.70;;;;;;;;;;5019870;28;20072;-68
2022/07/20 01:32:43;;;;;;;11.93;4.70;;;;;;;;;;5010981;28;20131;-67
2022/07/20 01:35:09;;;;;;;11.77;4.95;;;;;;;;;;5015223;28;20049;-68
2022/07/20 01:37:35;;;;;;;30.55;5.15;;;;;;;;;;5030102;28;20107;-67
2022/07/20 01:40:01;;;;;;;11.15;4.40;;;;;;;;;;5010989;28;20041;-68
2022/07/20 01:42:27;;;;;;;13.10;4.97;;;;;;;;;;5029788;28;20140;-68
2022/07/20 01:44:53;;;;;;;13.52;4.95;;;;;;;;;;5027343;28;20060;-69
2022/07/20 01:47:19;;;;;;;13.00;5.05;;;;;;;;;;5032552;28;20121;-67
2022/07/20 01:49:45;;;;;;;11.10;4.50;;;;;;;;;;5040148;28;20067;-68
2022/07/20 01:52:11;;;;;;;13.32;4.88;;;;;;;;;;5035757;28;20041;-68
2022/07/20 01:54:37;;;;;;;14.55;5.10;;;;;;;;;;5029232;28;20143;-68
2022/07/20 01:57:03;;;;;;;12.70;4.60;;;;;;;;;;5032373;28;20059;-68
2022/07/20 01:59:29;;;;;;;11.85;5.00;;;;;;;;;;5013533;28;20118;-70
2022/07/20 02:01:55;;;;;;;11.95;4.80;;;;;;;;;;5041090;28;20128;-69
2022/07/20 02:04:21;;;;;;;12.60;4.72;;;;;;;;;;5035050;28;20052;-69
2022/07/20 02:06:48;;;;;;;13.52;4.45;;;;;;;;;;5043121;28;20067;-69
2022/07/20 02:09:14;;;;;;;11.40;4.30;;;;;;;;;;5028257;28;20202;-68
2022/07/20 02:11:40;;;;;;;12.45;5.10;;;;;;;;;;5010724;28;20117;-69
2022/07/20 02:14:06;;;;;;;12.10;4.60;;;;;;;;;;5028279;28;20116;-69
2022/07/20 02:16:32;;;;;;;12.23;4.22;;;;;;;;;;5010522;28;20485;-69
2022/07/20 02:19:00;;;;;;;10.13;4.38;;;;;;;;;;5028840;28;20042;-67
2022/07/20 02:21:29;;;;;;;11.55;5.20;;;;;;;;;;5028509;28;20060;-68
2022/07/20 02:23:55;;;;;;;15.02;4.82;;;;;;;;;;5027865;28;20048;-68
2022/07/20 02:26:21;;;;;;;12.65;4.93;;;;;;;;;;5028321;28;20150;-68
2022/07/20 02:28:47;;;;;;;13.73;4.55;;;;;;;;;;5015257;28;20041;-69
2022/07/20 02:31:14;;;;;;;17.13;5.00;;;;;;;;;;5035223;28;20049;-68
2022/07/20 02:33:40;;;;;;;11.15;4.57;;;;;;;;;;5035035;28;20041;-69
2022/07/20 02:36:07;;;;;;;12.05;4.72;;;;;;;;;;5040935;28;20044;-67
2022/07/20 02:38:33;;;;;;;14.07;4.55;;;;;;;;;;5036851;28;20410;-68
2022/07/20 02:40:59;;;;;;;9.50;4.50;;;;;;;;;;5028373;28;20041;-69
2022/07/20 02:43:25;;;;;;;12.10;4.55;;;;;;;;;;5010371;28;20112;-68
2022/07/20 02:45:51;;;;;;;12.32;4.65;;;;;;;;;;5030657;28;20076;-67
2022/07/20 02:48:17;;;;;;;17.08;5.47;;;;;;;;;;5022341;28;20040;-67
2022/07/20 02:50:43;;;;;;;13.32;4.75;;;;;;;;;;5027867;28;20497;-68
2022/07/20 02:53:10;;;;;;;19.50;5.03;;;;;;;;;;5030471;28;20203;-69
2022/07/20 02:55:37;;;;;;;14.90;5.03;;;;;;;;;;5036561;28;20129;-68
2022/07/20 02:58:03;;;;;;;14.48;5.03;;;;;;;;;;5028940;28;20046;-68
2022/07/20 03:00:29;;;;;;;12.50;4.72;;;;;;;;;;5027811;28;20068;-68
2022/07/20 03:02:55;;;;;;;13.10;4.65;;;;;;;;;;5027797;28;20463;-68
2022/07/20 03:05:21;;;;;;;13.38;4.80;;;;;;;;;;5027177;28;20350;-68
2022/07/20 03:07:48;;;;;;;13.50;4.90;;;;;;;;;;5028824;28;20503;-67
2022/07/20 03:10:14;;;;;;;15.15;4.95;;;;;;;;;;5026413;28;20121;-68
2022/07/20 03:12:40;;;;;;;11.52;4.53;;;;;;;;;;5028401;28;20406;-69
2022/07/20 03:15:07;;;;;;;17.95;5.18;;;;;;;;;;5009920;28;20423;-68
2022/07/20 03:17:40;;;;;;;13.77;4.78;;;;;;;;;;5027276;28;20037;-69
2022/07/20 03:20:06;;;;;;;13.38;5.28;;;;;;;;;;5029745;28;20134;-67
2022/07/20 03:22:32;;;;;;;12.75;4.88;;;;;;;;;;5046889;28;20067;-69
2022/07/20 03:24:58;;;;;;;9.95;4.63;;;;;;;;;;5033306;28;20426;-67
2022/07/20 03:27:24;;;;;;;12.63;5.18;;;;;;;;;;5027347;28;20396;-68
2022/07/20 03:29:50;;;;;;;13.25;4.38;;;;;;;;;;5028203;28;20495;-69
2022/07/20 03:32:16;;;;;;;12.52;5.30;;;;;;;;;;5009236;28;20460;-69
2022/07/20 03:34:43;;;;;;;13.70;5.10;;;;;;;;;;5026520;28;20097;-69
2022/07/20 03:37:09;;;;;;;10.98;4.90;;;;;;;;;;5041364;28;20431;-68
2022/07/20 03:39:35;;;;;;;12.75;4.97;;;;;;;;;;5039293;28;20215;-68
2022/07/20 03:42:01;;;;;;;11.88;5.10;;;;;;;;;;5031452;28;20394;-68
2022/07/20 03:44:27;;;;;;;13.25;5.53;;;;;;;;;;5029772;28;20041;-68
2022/07/20 03:46:53;;;;;;;15.68;5.20;;;;;;;;;;5029780;28;20124;-69
2022/07/20 03:49:19;;;;;;;16.30;5.38;;;;;;;;;;5029451;28;20136;-70
2022/07/20 03:51:45;;;;;;;12.43;5.10;;;;;;;;;;5029189;28;20041;-69
2022/07/20 03:54:11;;;;;;;11.63;5.18;;;;;;;;;;5030396;28;20045;-67
2022/07/20 03:56:39;;;;;;;12.90;4.78;;;;;;;;;;5028597;28;20277;-67
2022/07/20 03:59:06;;;;;;;13.45;5.20;;;;;;;;;;5029822;28;20102;-67
2022/07/20 04:01:32;;;;;;;13.95;5.05;;;;;;;;;;5009666;28;20106;-68
2022/07/20 04:03:58;;;;;;;13.13;4.97;;;;;;;;;;5013758;28;20071;-69
2022/07/20 04:06:24;;;;;;;16.08;5.38;;;;;;;;;;5028247;28;20158;-69
2022/07/20 04:08:50;;;;;;;14.18;5.28;;;;;;;;;;5042655;28;20041;-68
2022/07/20 04:11:16;;;;;;;16.50;5.20;;;;;;;;;;5035477;28;20060;-68
2022/07/20 04:13:42;;;;;;;11.55;4.85;;;;;;;;;;5010535;28;20037;-70
2022/07/20 04:16:08;;;;;;;10.82;4.97;;;;;;;;;;5028337;28;20128;-67
2022/07/20 04:18:35;;;;;;;14.85;5.38;;;;;;;;;;5026233;28;20048;-69
2022/07/20 04:21:01;;;;;;;13.40;5.35;;;;;;;;;;5028742;28;20037;-66
2022/07/20 04:23:27;;;;;;;11.88;5.65;;;;;;;;;;5030156;28;20096;-68
2022/07/20 04:25:53;;;;;;;14.15;5.03;;;;;;;;;;5028358;28;20053;-67
2022/07/20 04:28:19;;;;;;;13.52;4.90;;;;;;;;;;5028672;28;20460;-66
2022/07/20 04:30:45;;;;;;;11.23;5.10;;;;;;;;;;5028929;28;20037;-67
2022/07/20 04:33:11;;;;;;;13.93;5.60;;;;;;;;;;5028381;28;20486;-67
2022/07/20 04:35:37;;;;;;;17.30;5.43;;;;;;;;;;5024447;28;20059;-67
2022/07/20 04:38:03;;;;;;;13.45;5.80;;;;;;;;;;5029330;28;20045;-67
2022/07/20 04:40:29;;;;;;;17.70;5.70;;;;;;;;;;5026227;28;20037;-65
2022/07/20 04:42:55;;;;;;;14.75;5.70;;;;;;;;;;5044850;28;20044;-65
2022/07/20 04:45:21;;;;;;;12.57;5.30;;;;;;;;;;5035306;28;20108;-65
2022/07/20 04:47:48;;;;;;;16.00;5.53;;;;;;;;;;5027559;28;20136;-69
2022/07/20 04:50:14;;;;;;;12.13;5.38;;;;;;;;;;5029173;28;20041;-67
2022/07/20 04:52:40;;;;;;;14.80;5.40;;;;;;;;;;5009793;28;20120;-68
2022/07/20 04:55:08;;;;;;;12.73;5.72;;;;;;;;;;5031512;28;20458;-68
2022/07/20 04:57:34;;;;;;;11.48;5.45;;;;;;;;;;5022702;28;20455;-68
2022/07/20 05:00:00;;;;;;;16.08;5.70;;;;;;;;;;5031255;28;20045;-67
2022/07/20 05:02:26;;;;;;;16.52;5.50;;;;;;;;;;5035783;28;20082;-68
2022/07/20 05:04:52;;;;;;;18.15;6.13;;;;;;;;;;5047709;28;20063;-67
2022/07/20 05:07:18;;;;;;;24.25;5.68;;;;;;;;;;5028714;28;20171;-68
2022/07/20 05:09:44;;;;;;;14.70;5.07;;;;;;;;;;5028112;28;20459;-69
2022/07/20 05:12:10;;;;;;;12.90;5.47;;;;;;;;;;5028226;28;20053;-66
2022/07/20 05:14:36;;;;;;;16.50;5.80;;;;;;;;;;5009450;28;20080;-66
2022/07/20 05:17:02;;;;;;;14.43;5.80;;;;;;;;;;5033052;28;20060;-69
2022/07/20 05:19:28;;;;;;;15.65;5.35;;;;;;;;;;5029180;28;20063;-67
2022/07/20 05:21:56;;;;;;;18.15;5.50;;;;;;;;;;5027279;28;20067;-68
2022/07/20 05:24:23;;;;;;;14.65;5.55;;;;;;;;;;5030529;28;20108;-68
2022/07/20 05:26:49;;;;;;;12.15;5.28;;;;;;;;;;5031767;28;20106;-69
2022/07/20 05:29:15;;;;;;;14.07;5.57;;;;;;;;;;5013086;28;20341;-67
2022/07/20 05:31:41;;;;;;;15.80;5.82;;;;;;;;;;5038782;28;20709;-69
2022/07/20 05:34:07;;;;;;;13.60;5.60;;;;;;;;;;5038009;28;20077;-70
2022/07/20 05:36:33;;;;;;;13.07;5.32;;;;;;;;;;5011826;28;20056;-70
2022/07/20 05:39:00;;;;;;;16.30;5.63;;;;;;;;;;5010125;28;20093;-71
2022/07/20 05:41:26;;;;;;;15.07;5.38;;;;;;;;;;5014248;28;20120;-68
2022/07/20 05:43:52;;;;;;;13.20;5.40;;;;;;;;;;5028478;28;20045;-70
2022/07/20 05:46:18;;;;;;;12.48;5.57;;;;;;;;;;5028014;28;20091;-71
2022/07/20 05:48:44;;;;;;;12.82;5.00;;;;;;;;;;5027138;28;20477;-71
2022/07/20 05:51:10;;;;;;;12.57;5.40;;;;;;;;;;5029377;28;20061;-69
2022/07/20 05:53:36;;;;;;;12.27;5.55;;;;;;;;;;5029820;28;20119;-71
2022/07/20 05:56:02;;;;;;;13.13;5.82;;;;;;;;;;5029141;28;20136;-71
2022/07/20 05:58:28;;;;;;;13.57;5.70;;;;;;;;;;5045530;28;20365;-70
2022/07/20 06:00:54;;;;;;;14.07;5.72;;;;;;;;;;5026598;28;20410;-71
2022/07/20 06:03:20;;;;;;;11.82;5.57;;;;;;;;;;5030099;28;20117;-69
2022/07/20 06:05:46;;;;;;;13.30;5.40;;;;;;;;;;5015326;28;20049;-69
2022/07/20 06:08:12;;;;;;;13.85;5.43;;;;;;;;;;5033960;28;20044;-67
2022/07/20 06:10:39;;;;;;;15.65;5.57;;;;;;;;;;5027995;28;20223;-71
2022/07/20 06:13:05;;;;;;;11.82;5.43;;;;;;;;;;5015558;28;20374;-70
2022/07/20 06:15:32;;;;;;;11.30;5.03;;;;;;;;;;5028912;28;20048;-71
2022/07/20 06:17:58;;;;;;;14.65;5.30;;;;;;;;;;5034831;28;20388;-69
2022/07/20 06:20:24;;;;;;;11.80;5.53;;;;;;;;;;5032028;28;20049;-71
2022/07/20 06:22:50;;;;;;;13.02;5.47;;;;;;;;;;5023691;28;20164;-70
2022/07/20 06:25:17;;;;;;;15.15;6.22;;;;;;;;;;5011943;28;20049;-69
2022/07/20 06:27:44;;;;;;;12.07;5.45;;;;;;;;;;5036578;28;20036;-72
2022/07/20 06:30:11;;;;;;;14.20;6.00;;;;;;;;;;5037838;28;20099;-71
2022/07/20 06:32:38;;;;;;;14.40;5.88;;;;;;;;;;5045856;28;20048;-68
2022/07/20 06:35:04;;;;;;;14.45;5.40;;;;;;;;;;5038741;28;20099;-70
2022/07/20 06:37:32;;;;;;;13.55;5.72;;;;;;;;;;5038297;28;20466;-69
2022/07/20 06:39:58;;;;;;;14.27;5.95;;;;;;;;;;5044983;28;20075;-69
2022/07/20 06:42:24;;;;;;;14.20;5.93;;;;;;;;;;5015418;28;20513;-69
2022/07/20 06:44:50;;;;;;;19.40;5.97;;;;;;;;;;5020021;28;20037;-75
2022/07/20 06:47:16;;;;;;;15.23;5.88;;;;;;;;;;5034410;28;20224;-73
2022/07/20 06:49:43;;;;;;;15.50;6.28;;;;;;;;;;5028072;28;20073;-71
2022/07/20 06:52:09;;;;;;;16.73;6.20;;;;;;;;;;5041090;28;20496;-73
2022/07/20 06:54:35;;;;;;;13.73;5.82;;;;;;;;;;5041865;28;20422;-78
2022/07/20 06:57:01;;;;;;;15.07;6.22;;;;;;;;;;5015278;28;20120;-76
2022/07/20 06:59:27;;;;;;;17.02;6.53;;;;;;;;;;5015495;28;20042;-71
2022/07/20 07:01:53;;;;;;;16.30;6.03;;;;;;;;;;5036723;28;20364;-72
2022/07/20 07:04:19;;;;;;;13.43;5.93;;;;;;;;;;5037072;28;20116;-75
2022/07/20 07:06:45;;;;;;;14.32;6.10;;;;;;;;;;5028879;28;20056;-75
2022/07/20 07:09:18;;;;;;;13.68;5.80;;;;;;;;;;5043028;28;20126;-73
2022/07/20 07:11:44;;;;;;;16.98;6.43;;;;;;;;;;5027505;28;20445;-72
2022/07/20 07:14:10;;;;;;;17.55;6.85;;;;;;;;;;5028603;28;20123;-77
2022/07/20 07:16:36;;;;;;;11.40;6.15;;;;;;;;;;4993884;28;20057;-81
2022/07/20 07:19:02;;;;;;;14.63;6.60;;;;;;;;;;5032422;28;20053;-78
2022/07/20 07:21:28;;;;;;;18.02;7.00;;;;;;;;;;5034335;28;20254;-77
2022/07/20 07:23:54;;;;;;;13.15;6.40;;;;;;;;;;5045844;28;20442;-76
2022/07/20 07:26:21;;;;;;;15.05;6.47;;;;;;;;;;5013248;28;20318;-72
2022/07/20 07:28:47;;;;;;;14.90;7.00;;;;;;;;;;5031762;28;20128;-76
2022/07/20 07:31:15;;;;;;;17.55;6.78;;;;;;;;;;5012859;28;20050;-79
2022/07/20 07:33:41;;;;;;;15.57;7.43;;;;;;;;;;5013139;28;20334;-73
2022/07/20 07:36:07;;;;;;;17.20;7.45;;;;;;;;;;5044674;28;20457;-73
2022/07/20 07:38:33;;;;;;;18.70;7.75;;;;;;;;;;5032822;28;20076;-74
2022/07/20 07:40:59;;;;;;;17.08;7.10;;;;;;;;;;5050754;28;20120;-69
2022/07/20 07:43:25;;;;;;;16.05;7.68;;;;;;;;;;5050942;28;20064;-73
2022/07/20 07:45:51;;;;;;;14.57;7.30;;;;;;;;;;5018584;28;20522;-74
2022/07/20 07:48:18;;;;;;;16.38;7.80;;;;;;;;;;5046018;28;20046;-77
2022/07/20 07:50:44;;;;;;;19.02;8.60;;;;;;;;;;5012972;28;20087;-77
2022/07/20 07:53:11;;;;;;;13.60;8.07;;;;;;;;;;5030607;28;20513;-75
2022/07/20 07:55:40;;;;;;;15.82;7.53;;;;;;;;;;5034067;28;20422;-78
2022/07/20 07:58:07;;;;;;;20.67;9.82;;;;;;;;;;5030329;28;20179;-74
2022/07/20 08:00:33;;;;;;;16.83;8.75;;;;;;;;;;5030738;28;20041;-69
2022/07/20 08:02:59;;;;;;;21.88;10.73;;;;;;;;;;5030331;28;20401;-75
2022/07/20 08:05:26;;;;;;;19.40;10.10;;;;;;;;;;5012471;28;20048;-74
2022/07/20 08:07:52;;;;;;;27.88;10.68;;;;;;;;;;5032988;28;20085;-73
2022/07/20 08:10:18;;;;;;;25.95;10.63;;;;;;;;;;5030303;28;20049;-74
2022/07/20 08:12:44;;;;;;;25.95;10.98;;;;;;;;;;5041390;28;20072;-72
2022/07/20 08:15:11;;;;;;;22.23;10.07;;;;;;;;;;5050023;28;20060;-74
2022/07/20 08:17:37;;;;;;;19.65;11.32;;;;;;;;;;5032716;28;20095;-73
2022/07/20 08:20:06;;;;;;;20.88;11.82;;;;;;;;;;5030062;28;20087;-72
2022/07/20 08:22:32;;;;;;;20.10;10.80;;;;;;;;;;5030478;28;20381;-68
2022/07/20 08:24:59;;;;;;;20.02;11.75;;;;;;;;;;5030260;28;20041;-74
2022/07/20 08:27:25;;;;;;;26.13;12.65;;;;;;;;;;5031406;28;20037;-72
2022/07/20 08:29:53;;;;;;;23.98;12.90;;;;;;;;;;5029212;28;20183;-73
2022/07/20 08:32:21;;;;;;;26.85;13.75;;;;;;;;;;5011482;28;20054;-74
2022/07/20 08:34:47;;;;;;;21.77;13.00;;;;;;;;;;5030206;28;20343;-69
2022/07/20 08:37:13;;;;;;;24.15;13.27;;;;;;;;;;5029732;28;20434;-73
2022/07/20 08:39:39;;;;;;;29.08;13.40;;;;;;;;;;5045270;28;20179;-74
2022/07/20 08:42:05;;;;;;;24.90;14.65;;;;;;;;;;5049578;28;20044;-78
2022/07/20 08:44:31;;;;;;;29.60;15.50;;;;;;;;;;5032065;28;20064;-70
2022/07/20 08:46:58;;;;;;;28.80;15.48;;;;;;;;;;5049620;28;20048;-76
2022/07/20 08:49:24;;;;;;;35.58;17.75;;;;;;;;;;5033474;28;20050;-69
2022/07/20 08:51:50;;;;;;;31.25;17.63;;;;;;;;;;5029502;28;20041;-76
2022/07/20 08:54:16;;;;;;;32.85;18.50;;;;;;;;;;5011040;28;20453;-77
2022/07/20 08:56:42;;;;;;;33.88;18.88;;;;;;;;;;5029831;28;20045;-77
2022/07/20 08:59:08;;;;;;;30.13;18.70;;;;;;;;;;5029354;28;20044;-77
2022/07/20 09:01:34;;;;;;;34.55;19.33;;;;;;;;;;5009924;28;20512;-75
2022/07/20 09:04:11;;;;;;;34.58;19.00;;;;;;;;;;5029889;28;20139;-70
2022/07/20 09:06:47;;;;;;;33.20;21.02;;;;;;;;;;5029940;28;20484;-75
2022/07/20 09:09:13;;;;;;;31.00;19.90;;;;;;;;;;5029449;28;20136;-76
2022/07/20 09:11:40;;;;;;;31.13;21.15;;;;;;;;;;5029577;28;20052;-73
2022/07/20 09:14:06;;;;;;;37.47;21.58;;;;;;;;;;5017019;28;20056;-77
2022/07/20 09:16:48;;;;;;;32.83;21.75;;;;;;;;;;5033889;28;20056;-74
2022/07/20 09:19:15;;;;;;;33.67;21.27;;;;;;;;;;5048956;28;20250;-75
2022/07/20 09:21:41;;;;;;;31.35;22.65;;;;;;;;;;5032823;28;20105;-76
2022/07/20 09:24:08;;;;;;;36.22;22.23;;;;;;;;;;5028226;28;20033;-68
2022/07/20 09:26:34;;;;;;;35.03;23.02;;;;;;;;;;5028908;28;20038;-79
2022/07/20 09:29:03;;;;;;;39.72;25.15;;;;;;;;;;5011525;28;20442;-70
2022/07/20 09:31:33;;;;;;;43.10;24.67;;;;;;;;;;5031967;28;20056;-72
2022/07/20 09:33:59;;;;;;;39.38;24.70;;;;;;;;;;5048417;28;20067;-66
2022/07/20 09:36:27;;;;;;;38.60;25.17;;;;;;;;;;5048643;28;20461;-67
2022/07/20 09:38:53;;;;;;;47.28;27.10;;;;;;;;;;5048884;28;20037;-67
2022/07/20 09:41:22;;;;;;;40.30;25.35;;;;;;;;;;5027179;28;20048;-65
2022/07/20 09:43:48;;;;;;;39.85;25.58;;;;;;;;;;5028753;28;20068;-72
2022/07/20 09:46:17;;;;;;;41.75;26.02;;;;;;;;;;5028256;28;20438;-72
2022/07/20 09:48:53;;;;;;;40.10;25.40;;;;;;;;;;5028817;28;20049;-66
2022/07/20 09:51:21;;;;;;;45.42;25.05;;;;;;;;;;5028693;28;20067;-65
2022/07/20 09:53:47;;;;;;;45.25;27.15;;;;;;;;;;5029659;28;20082;-72
2022/07/20 09:56:15;;;;;;;40.92;24.95;;;;;;;;;;5028925;28;20440;-66
2022/07/20 09:58:42;;;;;;;40.85;25.02;;;;;;;;;;5028868;28;20064;-72
2022/07/20 10:01:09;;;;;;;32.83;22.30;;;;;;;;;;5029013;28;20076;-73
2022/07/20 10:03:36;;;;;;;42.53;25.25;;;;;;;;;;5012753;28;20200;-72
2022/07/20 10:06:02;;;;;;;38.13;23.08;;;;;;;;;;5029055;28;20113;-66
2022/07/20 10:08:29;;;;;;;39.28;25.17;;;;;;;;;;5027522;28;20388;-70
2022/07/20 10:10:56;;;;;;;35.85;23.35;;;;;;;;;;5028557;28;20068;-70
2022/07/20 10:13:22;;;;;;;36.28;24.17;;;;;;;;;;5027323;28;20357;-66
2022/07/20 10:15:52;;;;;;;40.15;24.05;;;;;;;;;;5042198;28;20061;-67
2022/07/20 10:18:19;;;;;;;33.03;22.30;;;;;;;;;;5048446;28;20337;-69
2022/07/20 10:20:45;;;;;;;36.97;20.98;;;;;;;;;;5048195;28;20079;-66
2022/07/20 10:23:14;;;;;;;34.60;22.15;;;;;;;;;;5048442;28;20209;-66
2022/07/20 10:25:41;;;;;;;30.15;20.88;;;;;;;;;;5011370;28;20067;-67
2022/07/20 10:28:25;;;;;;;31.00;20.08;;;;;;;;;;5028650;28;20041;-65
2022/07/20 10:30:52;;;;;;;31.60;20.27;;;;;;;;;;5028335;28;20099;-65
2022/07/20 10:33:19;;;;;;;32.20;19.25;;;;;;;;;;5028416;28;20207;-64
2022/07/20 10:35:47;;;;;;;29.77;18.85;;;;;;;;;;5028103;28;20045;-65
2022/07/20 10:38:17;;;;;;;33.55;19.73;;;;;;;;;;5028325;28;20084;-65
2022/07/20 10:44:05;;;;;;;27.25;17.95;;;;;;;;;;5028097;28;20140;-65
2022/07/20 10:46:32;;;;;;;29.30;18.30;;;;;;;;;;5027344;28;20045;-64
2022/07/20 10:48:58;;;;;;;28.10;16.35;;;;;;;;;;5028224;28;20124;-63
2022/07/20 10:51:24;;;;;;;27.77;15.52;;;;;;;;;;5027246;28;20064;-66
2022/07/20 10:53:50;;;;;;;27.63;15.40;;;;;;;;;;5028006;28;20037;-63
2022/07/20 10:56:28;;;;;;;28.73;15.45;;;;;;;;;;5027670;28;20052;-64
2022/07/20 10:58:58;;;;;;;24.45;15.77;;;;;;;;;;5027932;28;20106;-64
2022/07/20 11:01:25;;;;;;;24.15;14.75;;;;;;;;;;5026760;28;20394;-66
2022/07/20 11:03:51;;;;;;;25.45;14.02;;;;;;;;;;5027628;28;20132;-65
2022/07/20 11:06:21;;;;;;;29.08;15.02;;;;;;;;;;5027193;28;20428;-63
2022/07/20 11:08:52;;;;;;;23.45;15.32;;;;;;;;;;5008721;28;20402;-65
2022/07/20 11:11:19;;;;;;;23.45;14.73;;;;;;;;;;5027616;28;20057;-65
2022/07/20 11:13:46;;;;;;;24.08;14.07;;;;;;;;;;5042354;28;20701;-63
2022/07/20 11:16:12;;;;;;;23.67;13.90;;;;;;;;;;5009513;28;20060;-66
2022/07/20 11:18:38;;;;;;;22.45;12.70;;;;;;;;;;5027578;28;20128;-65
2022/07/20 11:21:06;;;;;;;25.05;13.25;;;;;;;;;;5027380;28;20125;-68
2022/07/20 11:23:58;;;;;;;26.10;13.95;;;;;;;;;;5027068;28;20327;-69
2022/07/20 11:26:24;;;;;;;22.23;13.82;;;;;;;;;;5023580;28;20374;-66
2022/07/20 11:28:51;;;;;;;22.45;13.75;;;;;;;;;;5027430;28;20045;-65
2022/07/20 11:31:19;;;;;;;25.55;13.93;;;;;;;;;;5027669;28;20122;-64
2022/07/20 11:33:47;;;;;;;22.92;13.70;;;;;;;;;;5027035;28;20106;-66
2022/07/20 11:36:17;;;;;;;21.08;13.27;;;;;;;;;;5044080;28;20156;-66
2022/07/20 11:38:44;;;;;;;28.75;14.65;;;;;;;;;;5047197;28;20045;-66
2022/07/20 11:41:12;;;;;;;26.00;14.02;;;;;;;;;;5047355;28;20087;-67
2022/07/20 11:43:39;;;;;;;23.50;13.70;;;;;;;;;;5047402;28;20077;-66
2022/07/20 11:46:12;;;;;;;27.65;13.88;;;;;;;;;;5034075;28;20471;-65
2022/07/20 11:48:39;;;;;;;25.08;13.90;;;;;;;;;;5042827;28;20270;-68
2022/07/20 11:51:05;;;;;;;25.42;13.40;;;;;;;;;;5047382;28;20063;-66
2022/07/20 11:53:36;;;;;;;21.17;13.27;;;;;;;;;;5047048;28;20358;-64
2022/07/20 11:56:05;;;;;;;22.83;13.18;;;;;;;;;;5039482;28;20155;-65
2022/07/20 11:58:32;;;;;;;23.98;13.43;;;;;;;;;;5034722;28;20134;-71
2022/07/20 12:01:00;;;;;;;21.92;12.80;;;;;;;;;;5027034;28;20125;-76
2022/07/20 12:03:28;;;;;;;23.25;13.15;;;;;;;;;;5028404;28;20528;-71
2022/07/20 12:05:55;;;;;;;21.08;10.68;;;;;;;;;;5030293;28;20049;-69
2022/07/20 12:08:22;;;;;;;20.35;11.15;;;;;;;;;;5030321;28;20085;-66
2022/07/20 12:10:48;;;;;;;21.38;11.35;;;;;;;;;;5047822;28;20075;-66
2022/07/20 12:13:16;;;;;;;18.10;11.20;;;;;;;;;;5043650;28;20033;-66
2022/07/20 12:15:51;;;;;;;21.27;10.20;;;;;;;;;;5050654;28;20075;-66
2022/07/20 12:18:31;;;;;;;17.70;9.90;;;;;;;;;;5050803;28;20084;-69
2022/07/20 12:20:58;;;;;;;17.10;9.13;;;;;;;;;;5050296;28;20036;-68
2022/07/20 12:23:26;;;;;;;17.73;8.98;;;;;;;;;;5045520;28;20633;-66
2022/07/20 12:25:52;;;;;;;17.40;8.98;;;;;;;;;;5050117;28;20041;-67
2022/07/20 12:28:28;;;;;;;16.60;9.70;;;;;;;;;;5013555;28;20137;-66
2022/07/20 12:30:54;;;;;;;;;;;;;;;;;;5012723;28;20474;-71
2022/07/20 12:33:20;;;;;;;17.30;10.43;;;;;;;;;;5035020;28;20221;-67
2022/07/20 12:35:50;;;;;;;19.80;10.52;;;;;;;;;;5030751;28;20041;-67
2022/07/20 12:38:17;;;;;;;18.48;10.85;;;;;;;;;;5015881;28;20052;-74
2022/07/20 12:40:44;;;;;;;17.75;11.13;;;;;;;;;;5049632;28;20045;-64
2022/07/20 12:43:28;;;;;;;22.55;11.50;;;;;;;;;;5047808;28;20037;-69
2022/07/20 12:46:01;;;;;;;24.25;11.18;;;;;;;;;;5028000;28;20349;-67
2022/07/20 12:48:27;;;;;;;20.80;12.10;;;;;;;;;;5030515;28;20110;-69
2022/07/20 12:50:53;;;;;;;21.17;11.95;;;;;;;;;;5029762;28;20041;-72
2022/07/20 12:53:19;;;;;;;20.40;12.05;;;;;;;;;;5029588;28;20311;-70
2022/07/20 12:55:45;;;;;;;21.77;11.77;;;;;;;;;;5030150;28;20095;-66
2022/07/20 12:58:11;;;;;;;22.88;12.52;;;;;;;;;;5044712;28;20089;-68
2022/07/20 13:00:38;;;;;;;26.45;12.85;;;;;;;;;;5029762;28;20052;-68
2022/07/20 13:03:04;;;;;;;21.85;12.57;;;;;;;;;;5030013;28;20041;-68
2022/07/20 13:05:30;;;;;;;24.15;13.25;;;;;;;;;;5035820;28;20067;-70
2022/07/20 13:07:56;;;;;;;21.17;13.38;;;;;;;;;;5028842;28;20041;-70
2022/07/20 13:10:22;;;;;;;20.40;13.00;;;;;;;;;;5029101;28;20045;-69
2022/07/20 13:12:48;;;;;;;20.80;12.85;;;;;;;;;;5028666;28;20041;-73
2022/07/20 13:15:14;;;;;;;22.73;13.02;;;;;;;;;;5029251;28;20105;-67
2022/07/20 13:17:40;;;;;;;21.00;12.32;;;;;;;;;;5028806;28;20072;-68
2022/07/20 13:20:07;;;;;;;21.55;11.82;;;;;;;;;;5011121;28;20045;-72
2022/07/20 13:22:33;;;;;;;21.02;10.77;;;;;;;;;;5029007;28;20414;-68
2022/07/20 13:24:59;;;;;;;21.38;11.90;;;;;;;;;;5028020;28;20551;-66
2022/07/20 13:27:25;;;;;;;19.10;11.15;;;;;;;;;;5011237;28;20481;-70
2022/07/20 13:29:51;;;;;;;22.42;11.07;;;;;;;;;;5028676;28;20068;-68
2022/07/20 13:32:17;;;;;;;21.60;11.07;;;;;;;;;;5029356;28;20092;-71
2022/07/20 13:34:43;;;;;;;24.77;11.98;;;;;;;;;;5011088;28;20426;-70
2022/07/20 13:37:10;;;;;;;18.75;11.38;;;;;;;;;;5029182;28;20219;-68
2022/07/20 13:39:36;;;;;;;19.85;11.07;;;;;;;;;;5020383;28;20338;-68
2022/07/20 13:42:02;;;;;;;19.90;11.45;;;;;;;;;;5044271;28;20057;-68
2022/07/20 13:44:28;;;;;;;16.67;9.82;;;;;;;;;;5029663;28;20049;-68
2022/07/20 13:46:55;;;;;;;18.85;9.90;;;;;;;;;;5010073;28;20049;-70
2022/07/20 13:49:21;;;;;;;16.38;9.13;;;;;;;;;;5029834;28;20061;-75
2022/07/20 13:51:47;;;;;;;20.02;8.77;;;;;;;;;;5011292;28;20561;-69
2022/07/20 13:54:13;;;;;;;14.95;9.25;;;;;;;;;;5028733;28;20176;-68
2022/07/20 13:56:39;;;;;;;16.10;9.55;;;;;;;;;;5028758;28;20438;-71
2022/07/20 13:59:05;;;;;;;16.08;8.45;;;;;;;;;;5028216;28;20153;-72
2022/07/20 14:01:42;;;;;;;16.35;7.63;;;;;;;;;;5028135;28;20067;-69
2022/07/20 14:04:08;;;;;;;15.13;8.25;;;;;;;;;;5048106;28;20068;-75
2022/07/20 14:06:34;;;;;;;16.35;7.80;;;;;;;;;;5030511;28;20049;-69
2022/07/20 14:09:00;;;;;;;14.05;7.93;;;;;;;;;;5048329;28;20107;-68
2022/07/20 14:11:26;;;;;;;17.80;8.07;;;;;;;;;;5029574;28;20041;-70
2022/07/20 14:13:52;;;;;;;15.45;7.95;;;;;;;;;;4994652;28;20252;-74
2022/07/20 14:16:18;;;;;;;16.05;7.72;;;;;;;;;;5027774;28;20053;-70
2022/07/20 14:18:45;;;;;;;14.13;6.70;;;;;;;;;;5029108;28;20122;-70
2022/07/20 14:21:12;;;;;;;14.77;7.20;;;;;;;;;;5028474;28;20056;-70
2022/07/20 14:23:38;;;;;;;14.75;7.82;;;;;;;;;;5028298;28;20089;-69
2022/07/20 14:26:04;;;;;;;19.08;7.70;;;;;;;;;;5027346;28;20037;-68
2022/07/20 14:28:30;;;;;;;15.43;6.88;;;;;;;;;;5027955;28;20072;-75
2022/07/20 14:30:57;;;;;;;14.45;7.70;;;;;;;;;;4994513;28;20453;-70